createdAt,value
2019-03-03T00:00:19.567Z,5.44
2019-03-03T00:02:48.237Z,5.47
2019-03-03T00:05:16.875Z,5.54
2019-03-03T00:07:45.501Z,5.50
2019-03-03T00:10:14.272Z,5.48
2019-03-03T00:12:42.900Z,5.46
2019-03-03T00:15:12.511Z,5.38
2019-03-03T00:17:41.136Z,5.48
2019-03-03T00:20:14.717Z,5.44
2019-03-03T00:22:43.356Z,5.44
2019-03-03T00:25:16.565Z,5.39
2019-03-03T00:27:45.212Z,5.29
2019-03-03T00:30:21.437Z,5.28
2019-03-03T00:32:50.112Z,5.30
2019-03-03T00:35:18.895Z,5.18
2019-03-03T00:38:00.958Z,5.16
2019-03-03T00:40:34.135Z,5.19
2019-03-03T00:43:22.234Z,5.23
2019-03-03T00:46:09.036Z,5.08
2019-03-03T00:48:39.324Z,5.11
2019-03-03T00:51:12.608Z,5.01
2019-03-03T00:53:42.948Z,5.03
2019-03-03T00:56:19.104Z,5.08
2019-03-03T00:59:06.212Z,4.94
2019-03-03T01:01:36.481Z,4.91
2019-03-03T01:04:11.215Z,4.97
2019-03-03T01:06:59.747Z,4.96
2019-03-03T01:09:41.769Z,4.95
2019-03-03T01:12:30.459Z,5.01
2019-03-03T01:15:04.692Z,4.83
2019-03-03T01:17:35.811Z,4.84
2019-03-03T01:20:11.547Z,4.81
2019-03-03T01:22:58.310Z,4.86
2019-03-03T01:25:26.987Z,4.76
2019-03-03T01:27:55.551Z,4.82
2019-03-03T01:30:24.216Z,4.87
2019-03-03T01:32:52.846Z,4.88
2019-03-03T01:35:21.460Z,4.89
2019-03-03T01:37:50.085Z,4.90
2019-03-03T01:40:18.712Z,4.85
2019-03-03T01:42:47.195Z,4.95
2019-03-03T01:45:16.369Z,5.00
2019-03-03T01:47:45.040Z,4.99
2019-03-03T01:50:14.271Z,4.78
2019-03-03T01:52:43.003Z,4.78
2019-03-03T01:55:12.728Z,4.94
2019-03-03T01:57:41.350Z,4.86
2019-03-03T02:00:24.695Z,4.83
2019-03-03T02:02:53.730Z,4.91
2019-03-03T02:05:22.399Z,4.91
2019-03-03T02:07:51.076Z,5.04
2019-03-03T02:10:21.972Z,4.93
2019-03-03T02:12:50.642Z,4.95
2019-03-03T02:15:19.439Z,4.95
2019-03-03T02:17:48.154Z,4.98
2019-03-03T02:20:16.838Z,5.04
2019-03-03T02:22:45.475Z,4.95
2019-03-03T02:25:14.957Z,5.14
2019-03-03T02:27:43.592Z,5.02
2019-03-03T02:30:20.394Z,4.98
2019-03-03T02:32:49.145Z,4.88
2019-03-03T02:35:17.884Z,4.76
2019-03-03T02:37:46.925Z,4.82
2019-03-03T02:40:20.666Z,4.85
2019-03-03T02:42:49.297Z,4.86
2019-03-03T02:45:18.443Z,4.98
2019-03-03T02:47:47.020Z,4.99
2019-03-03T02:50:16.566Z,4.81
2019-03-03T02:52:45.240Z,4.73
2019-03-03T02:55:17.371Z,4.87
2019-03-03T02:57:46.142Z,4.98
2019-03-03T03:00:24.468Z,5.02
2019-03-03T03:02:54.746Z,5.07
2019-03-03T03:05:47.227Z,5.09
2019-03-03T03:08:17.546Z,4.90
2019-03-03T03:10:47.843Z,4.91
2019-03-03T03:13:24.125Z,4.86
2019-03-03T03:15:54.330Z,4.95
2019-03-03T03:18:40.811Z,5.22
2019-03-03T03:21:11.005Z,5.39
2019-03-03T03:23:41.338Z,5.36
2019-03-03T03:26:14.610Z,5.38
2019-03-03T03:28:44.861Z,5.38
2019-03-03T03:31:20.871Z,5.39
2019-03-03T03:33:53.779Z,5.18
2019-03-03T03:36:23.978Z,5.10
2019-03-03T03:39:04.714Z,5.09
2019-03-03T03:41:34.969Z,5.11
2019-03-03T03:44:21.694Z,5.11
2019-03-03T03:47:06.832Z,5.13
2019-03-03T03:49:39.925Z,5.19
2019-03-03T03:52:10.141Z,4.89
2019-03-03T03:54:57.483Z,4.80
2019-03-03T03:57:27.750Z,4.66
2019-03-03T03:59:58.084Z,4.64
2019-03-03T04:02:28.413Z,4.52
2019-03-03T04:05:07.687Z,4.42
2019-03-03T04:07:43.999Z,4.29
2019-03-03T04:10:31.558Z,4.21
2019-03-03T04:13:01.858Z,3.91
2019-03-03T04:15:41.104Z,3.94
2019-03-03T04:18:25.031Z,3.85
2019-03-03T04:21:07.180Z,3.82
2019-03-03T04:23:50.606Z,3.81
2019-03-03T04:26:23.877Z,3.88
2019-03-03T04:28:57.008Z,3.78
2019-03-03T04:31:27.230Z,3.79
2019-03-03T04:34:13.712Z,3.76
2019-03-03T04:36:43.988Z,3.75
2019-03-03T04:39:16.949Z,3.64
2019-03-03T04:41:52.938Z,3.66
2019-03-03T04:44:23.083Z,3.65
2019-03-03T04:46:53.299Z,3.71
2019-03-03T04:49:26.470Z,3.65
2019-03-03T04:51:56.730Z,3.59
2019-03-03T04:54:30.115Z,3.51
2019-03-03T04:57:08.988Z,3.58
2019-03-03T04:59:56.284Z,3.41
2019-03-03T05:02:26.411Z,3.35
2019-03-03T05:05:09.166Z,3.24
2019-03-03T05:07:52.747Z,3.16
2019-03-03T05:10:32.303Z,3.05
2019-03-03T05:13:02.397Z,3.14
2019-03-03T05:15:46.550Z,3.26
2019-03-03T05:18:23.779Z,3.29
2019-03-03T05:20:52.461Z,3.15
2019-03-03T05:23:21.097Z,3.09
2019-03-03T05:25:49.737Z,3.04
2019-03-03T05:28:18.343Z,2.86
2019-03-03T05:30:46.950Z,2.94
2019-03-03T05:33:15.561Z,3.12
2019-03-03T05:35:44.121Z,3.18
2019-03-03T05:38:12.705Z,2.96
2019-03-03T05:40:41.229Z,2.92
2019-03-03T05:43:09.798Z,2.75
2019-03-03T05:45:38.403Z,2.92
2019-03-03T05:48:07.013Z,3.05
2019-03-03T05:50:35.572Z,3.14
2019-03-03T05:53:04.211Z,3.34
2019-03-03T05:55:32.840Z,3.59
2019-03-03T05:58:01.411Z,3.77
2019-03-03T06:00:29.971Z,3.83
2019-03-03T06:02:58.646Z,4.02
2019-03-03T06:05:27.279Z,4.25
2019-03-03T06:07:55.820Z,4.44
2019-03-03T06:10:24.436Z,4.53
2019-03-03T06:12:53.111Z,4.91
2019-03-03T06:15:21.709Z,5.42
2019-03-03T06:17:50.344Z,6.01
2019-03-03T06:20:19.025Z,6.51
2019-03-03T06:22:47.583Z,6.92
2019-03-03T06:25:19.238Z,7.64
2019-03-03T06:27:47.774Z,8.20
2019-03-03T06:30:16.499Z,8.81
2019-03-03T06:32:45.101Z,9.08
2019-03-03T06:35:14.037Z,8.93
2019-03-03T06:37:42.668Z,8.57
2019-03-03T06:40:11.808Z,8.79
2019-03-03T06:42:40.441Z,8.72
2019-03-03T06:45:13.684Z,9.08
2019-03-03T06:47:42.360Z,8.92
2019-03-03T06:50:12.387Z,9.28
2019-03-03T06:52:41.057Z,9.73
2019-03-03T06:55:11.483Z,9.52
2019-03-03T06:57:40.060Z,9.00
2019-03-03T07:00:14.372Z,9.11
2019-03-03T07:02:43.005Z,8.95
2019-03-03T07:05:11.744Z,8.96
2019-03-03T07:07:40.485Z,8.93
2019-03-03T07:10:11.528Z,8.55
2019-03-03T07:12:40.134Z,7.99
2019-03-03T07:15:13.879Z,8.05
2019-03-03T07:17:42.508Z,8.16
2019-03-03T07:20:12.845Z,8.03
2019-03-03T07:22:41.519Z,8.31
2019-03-03T07:25:14.647Z,8.50
2019-03-03T07:27:43.254Z,8.38
2019-03-03T07:30:17.734Z,8.30
2019-03-03T07:32:50.372Z,8.28
2019-03-03T07:35:19.010Z,8.55
2019-03-03T07:37:47.619Z,8.33
2019-03-03T07:40:16.242Z,8.35
2019-03-03T07:42:44.856Z,8.20
2019-03-03T07:45:15.135Z,8.36
2019-03-03T07:47:43.711Z,8.42
2019-03-03T07:50:12.376Z,8.25
2019-03-03T07:52:40.853Z,8.68
2019-03-03T07:55:10.522Z,8.51
2019-03-03T07:57:39.084Z,9.04
2019-03-03T08:00:10.797Z,8.66
2019-03-03T08:02:39.423Z,8.85
2019-03-03T08:05:09.504Z,8.92
2019-03-03T08:07:38.133Z,8.81
2019-03-03T08:10:09.672Z,8.92
2019-03-03T08:12:38.344Z,9.34
2019-03-03T08:15:09.383Z,9.37
2019-03-03T08:17:38.018Z,9.25
2019-03-03T08:20:09.707Z,9.87
2019-03-03T08:22:38.351Z,9.92
2019-03-03T08:25:08.946Z,9.92
2019-03-03T08:27:37.590Z,10.28
2019-03-03T08:30:16.433Z,10.42
2019-03-03T08:32:45.035Z,11.12
2019-03-03T08:35:24.717Z,11.82
2019-03-03T08:37:56.160Z,12.13
2019-03-03T08:40:24.801Z,12.10
2019-03-03T08:43:06.936Z,12.19
2019-03-03T08:45:37.245Z,12.34
2019-03-03T08:48:10.539Z,12.01
2019-03-03T08:50:52.783Z,11.85
2019-03-03T08:53:28.972Z,11.90
2019-03-03T08:56:01.855Z,11.59
2019-03-03T08:58:40.986Z,11.82
2019-03-03T09:01:20.306Z,11.79
2019-03-03T09:04:05.505Z,12.44
2019-03-03T09:06:38.371Z,11.96
2019-03-03T09:09:12.044Z,11.98
2019-03-03T09:11:44.070Z,11.54
2019-03-03T09:14:17.054Z,11.50
2019-03-03T09:16:48.386Z,11.84
2019-03-03T09:19:24.834Z,11.47
2019-03-03T09:22:11.445Z,11.61
2019-03-03T09:24:41.780Z,11.71
2019-03-03T09:27:18.012Z,12.02
2019-03-03T09:29:48.258Z,11.96
2019-03-03T09:32:18.394Z,11.54
2019-03-03T09:34:57.960Z,11.37
2019-03-03T09:37:43.179Z,11.14
2019-03-03T09:40:13.493Z,11.34
2019-03-03T09:42:46.549Z,10.60
2019-03-03T09:45:16.863Z,11.08
2019-03-03T09:47:47.129Z,11.27
2019-03-03T09:50:23.103Z,11.70
2019-03-03T09:52:56.381Z,11.93
2019-03-03T09:55:38.965Z,11.94
2019-03-03T09:58:18.021Z,12.07
2019-03-03T10:01:00.403Z,12.40
2019-03-03T10:03:36.126Z,12.02
2019-03-03T10:06:09.273Z,12.76
2019-03-03T10:08:39.521Z,13.32
2019-03-03T10:11:22.073Z,13.46
2019-03-03T10:13:55.068Z,13.67
2019-03-03T10:16:28.303Z,13.77
2019-03-03T10:19:10.718Z,13.91
2019-03-03T10:21:43.840Z,13.99
2019-03-03T10:24:14.109Z,13.85
2019-03-03T10:27:02.634Z,13.81
2019-03-03T10:29:38.629Z,13.72
2019-03-03T10:32:18.041Z,13.76
2019-03-03T10:34:48.335Z,13.34
2019-03-03T10:37:21.270Z,13.17
2019-03-03T10:40:03.127Z,13.62
2019-03-03T10:42:35.952Z,13.54
2019-03-03T10:45:10.297Z,14.01
2019-03-03T10:47:49.726Z,14.66
2019-03-03T10:50:36.300Z,14.72
2019-03-03T10:53:06.782Z,15.08
2019-03-03T10:55:37.098Z,15.17
2019-03-03T10:58:10.141Z,15.83
2019-03-03T11:00:49.155Z,16.08
2019-03-03T11:03:25.173Z,17.49
2019-03-03T11:05:55.440Z,18.74
2019-03-03T11:08:42.140Z,19.83
2019-03-03T11:11:21.368Z,19.30
2019-03-03T11:13:56.627Z,19.17
2019-03-03T11:16:39.177Z,18.60
2019-03-03T11:19:20.049Z,18.35
2019-03-03T11:22:06.416Z,18.83
2019-03-03T11:24:39.375Z,19.52
2019-03-03T11:27:26.177Z,19.30
2019-03-03T11:30:05.424Z,18.89
2019-03-03T11:32:41.830Z,19.69
2019-03-03T11:35:20.958Z,19.79
2019-03-03T11:37:57.120Z,17.17
2019-03-03T11:40:27.933Z,16.79
2019-03-03T11:43:14.435Z,16.52
2019-03-03T11:45:47.691Z,16.20
2019-03-03T11:48:34.349Z,15.77
2019-03-03T11:51:10.694Z,15.55
2019-03-03T11:53:56.031Z,15.17
2019-03-03T11:56:26.232Z,15.56
2019-03-03T11:58:59.168Z,15.72
2019-03-03T12:01:35.406Z,16.05
2019-03-03T12:04:11.713Z,16.43
2019-03-03T12:06:46.756Z,16.24
2019-03-03T12:09:29.521Z,15.67
2019-03-03T12:12:05.766Z,15.64
2019-03-03T12:14:52.593Z,16.34
2019-03-03T12:17:25.841Z,17.73
2019-03-03T12:20:08.395Z,18.01
2019-03-03T12:22:47.484Z,18.08
2019-03-03T12:25:32.860Z,18.06
2019-03-03T12:28:09.405Z,17.71
2019-03-03T12:30:54.840Z,16.97
2019-03-03T12:33:25.136Z,16.35
2019-03-03T12:35:58.393Z,16.21
2019-03-03T12:38:34.499Z,16.08
2019-03-03T12:41:10.958Z,15.60
2019-03-03T12:43:56.418Z,15.38
2019-03-03T12:46:32.229Z,15.49
2019-03-03T12:49:05.400Z,15.58
2019-03-03T12:52:01.262Z,15.34
2019-03-03T12:54:34.459Z,14.93
2019-03-03T12:57:10.394Z,14.69
2019-03-03T12:59:46.520Z,14.59
2019-03-03T13:02:33.185Z,14.66
2019-03-03T13:05:12.148Z,14.38
2019-03-03T13:07:50.784Z,13.84
2019-03-03T13:10:23.776Z,13.54
2019-03-03T13:12:59.673Z,13.19
2019-03-03T13:15:33.932Z,12.98
2019-03-03T13:18:20.301Z,12.70
2019-03-03T13:21:06.401Z,12.46
2019-03-03T13:23:48.844Z,12.30
2019-03-03T13:26:35.593Z,12.32
2019-03-03T13:29:11.975Z,12.34
2019-03-03T13:31:58.680Z,12.55
2019-03-03T13:34:37.958Z,12.97
2019-03-03T13:37:13.835Z,13.36
2019-03-03T13:39:46.490Z,13.58
2019-03-03T13:42:32.122Z,14.01
2019-03-03T13:45:00.766Z,14.13
2019-03-03T13:47:29.309Z,14.19
2019-03-03T13:49:57.979Z,13.81
2019-03-03T13:52:26.656Z,14.05
2019-03-03T13:54:55.212Z,14.15
2019-03-03T13:57:23.881Z,14.23
2019-03-03T13:59:52.526Z,14.16
2019-03-03T14:02:21.155Z,13.86
2019-03-03T14:04:49.838Z,13.62
2019-03-03T14:07:18.471Z,13.55
2019-03-03T14:09:47.047Z,13.66
2019-03-03T14:12:15.603Z,13.76
2019-03-03T14:14:44.278Z,13.94
2019-03-03T14:17:12.832Z,13.82
2019-03-03T14:19:41.514Z,13.58
2019-03-03T14:22:10.141Z,13.25
2019-03-03T14:24:38.819Z,12.96
2019-03-03T14:27:10.610Z,12.66
2019-03-03T14:29:37.779Z,12.21
2019-03-03T14:32:06.411Z,12.02
2019-03-03T14:34:35.103Z,11.93
2019-03-03T14:37:03.783Z,11.93
2019-03-03T14:39:32.423Z,11.89
2019-03-03T14:42:01.061Z,11.71
2019-03-03T14:44:29.729Z,11.83
2019-03-03T14:46:58.292Z,11.79
2019-03-03T14:49:26.940Z,11.68
2019-03-03T14:51:55.621Z,11.60
2019-03-03T14:54:24.093Z,11.52
2019-03-03T14:56:52.765Z,11.42
2019-03-03T14:59:21.330Z,11.65
2019-03-03T15:01:50.005Z,13.13
2019-03-03T15:04:18.641Z,14.29
2019-03-03T15:06:47.248Z,13.92
2019-03-03T15:09:17.520Z,13.70
2019-03-03T15:11:46.141Z,13.25
2019-03-03T15:14:14.768Z,12.72
2019-03-03T15:16:43.402Z,12.42
2019-03-03T15:19:12.005Z,12.60
2019-03-03T15:21:40.642Z,12.87
2019-03-03T15:24:09.416Z,12.64
2019-03-03T15:26:38.046Z,12.24
2019-03-03T15:29:06.833Z,12.02
2019-03-03T15:31:37.949Z,12.23
2019-03-03T15:34:06.545Z,12.80
2019-03-03T15:36:35.221Z,13.10
2019-03-03T15:39:05.292Z,12.74
2019-03-03T15:41:33.959Z,12.38
2019-03-03T15:44:02.797Z,12.00
2019-03-03T15:46:31.422Z,11.70
2019-03-03T15:49:00.101Z,11.40
2019-03-03T15:51:28.671Z,11.41
2019-03-03T15:54:00.039Z,11.46
2019-03-03T15:56:28.599Z,11.26
2019-03-03T15:59:00.239Z,10.96
2019-03-03T16:01:28.945Z,10.73
2019-03-03T16:03:57.544Z,10.66
2019-03-03T16:06:26.218Z,10.58
2019-03-03T16:08:54.710Z,10.36
2019-03-03T16:11:23.391Z,10.29
2019-03-03T16:13:51.947Z,10.16
2019-03-03T16:16:20.510Z,9.91
2019-03-03T16:18:49.183Z,9.67
2019-03-03T16:21:17.810Z,9.47
2019-03-03T16:23:46.424Z,9.29
2019-03-03T16:26:15.049Z,9.11
2019-03-03T16:28:43.531Z,9.03
2019-03-03T16:31:12.207Z,8.91
2019-03-03T16:33:40.760Z,8.75
2019-03-03T16:36:12.125Z,8.68
2019-03-03T16:38:40.734Z,8.60
2019-03-03T16:41:09.341Z,8.52
2019-03-03T16:43:40.984Z,8.55
2019-03-03T16:46:09.650Z,8.47
2019-03-03T16:48:38.251Z,8.58
2019-03-03T16:51:06.924Z,8.62
2019-03-03T16:53:35.477Z,8.50
2019-03-03T16:56:04.149Z,8.50
2019-03-03T16:58:32.832Z,8.52
2019-03-03T17:01:01.448Z,8.50
2019-03-03T17:03:30.119Z,8.53
2019-03-03T17:06:01.334Z,8.63
2019-03-03T17:08:29.910Z,8.62
2019-03-03T17:10:58.475Z,8.70
2019-03-03T17:13:29.918Z,8.57
2019-03-03T17:15:58.843Z,8.60
2019-03-03T17:18:27.765Z,8.60
2019-03-03T17:20:56.379Z,8.57
2019-03-03T17:23:25.045Z,8.40
2019-03-03T17:25:53.677Z,8.44
2019-03-03T17:28:22.301Z,8.45
2019-03-03T17:30:50.987Z,8.30
2019-03-03T17:33:22.309Z,8.25
2019-03-03T17:35:50.874Z,8.30
2019-03-03T17:38:19.477Z,8.28
2019-03-03T17:40:48.104Z,8.30
2019-03-03T17:43:16.814Z,8.29
2019-03-03T17:45:45.441Z,8.15
2019-03-03T17:48:14.086Z,8.23
2019-03-03T17:50:42.648Z,8.24
2019-03-03T17:53:11.323Z,8.23
2019-03-03T17:55:39.884Z,8.22
2019-03-03T17:58:10.631Z,8.17
2019-03-03T18:00:40.573Z,7.95
2019-03-03T18:03:09.302Z,7.97
2019-03-03T18:05:37.860Z,8.06
2019-03-03T18:08:06.508Z,8.15
2019-03-03T18:10:35.118Z,8.16
2019-03-03T18:13:03.788Z,8.18
2019-03-03T18:15:32.485Z,8.21
2019-03-03T18:18:01.198Z,8.24
2019-03-03T18:20:29.813Z,8.28
2019-03-03T18:22:58.479Z,8.20
2019-03-03T18:25:27.159Z,8.23
2019-03-03T18:27:55.649Z,8.20
2019-03-03T18:30:25.981Z,8.10
2019-03-03T18:32:54.659Z,8.06
2019-03-03T18:35:23.276Z,7.95
2019-03-03T18:37:51.970Z,7.74
2019-03-03T18:40:25.360Z,7.94
2019-03-03T18:42:54.329Z,8.03
2019-03-03T18:45:23.671Z,8.02
2019-03-03T18:47:52.432Z,7.90
2019-03-03T18:50:23.409Z,8.00
2019-03-03T18:52:52.079Z,8.00
2019-03-03T18:55:20.708Z,7.89
2019-03-03T18:57:49.352Z,8.00
2019-03-03T19:00:23.704Z,8.02
2019-03-03T19:02:52.577Z,7.96
2019-03-03T19:05:21.409Z,7.99
2019-03-03T19:07:50.204Z,8.09
2019-03-03T19:10:21.514Z,8.08
2019-03-03T19:12:50.169Z,8.06
2019-03-03T19:15:20.356Z,8.06
2019-03-03T19:17:52.033Z,8.01
2019-03-03T19:20:21.616Z,7.91
2019-03-03T19:22:50.657Z,7.75
2019-03-03T19:25:19.668Z,7.60
2019-03-03T19:27:48.376Z,7.91
2019-03-03T19:30:19.959Z,8.07
2019-03-03T19:32:51.686Z,8.09
2019-03-03T19:35:23.226Z,8.07
2019-03-03T19:37:56.352Z,8.03
2019-03-03T19:40:24.996Z,8.09
2019-03-03T19:42:53.684Z,8.07
2019-03-03T19:45:28.740Z,8.09
2019-03-03T19:47:57.418Z,8.03
2019-03-03T19:50:26.047Z,7.74
2019-03-03T19:52:54.703Z,7.71
2019-03-03T19:55:23.443Z,7.80
2019-03-03T19:57:52.151Z,7.87
2019-03-03T20:00:35.093Z,7.57
2019-03-03T20:02:57.011Z,7.35
2019-03-03T20:05:25.702Z,7.28
2019-03-03T20:07:54.434Z,6.98
2019-03-03T20:10:23.114Z,6.85
2019-03-03T20:12:54.581Z,6.85
2019-03-03T20:15:23.198Z,6.53
2019-03-03T20:17:51.873Z,6.63
2019-03-03T20:20:21.409Z,6.56
2019-03-03T20:22:50.074Z,6.55
2019-03-03T20:25:18.669Z,6.56
2019-03-03T20:27:47.343Z,6.63
2019-03-03T20:30:23.411Z,6.72
2019-03-03T20:32:52.085Z,6.77
2019-03-03T20:35:20.711Z,6.74
2019-03-03T20:37:49.381Z,6.77
2019-03-03T20:40:22.955Z,6.70
2019-03-03T20:42:51.626Z,6.73
2019-03-03T20:45:25.272Z,6.74
2019-03-03T20:47:53.944Z,6.70
2019-03-03T20:50:22.664Z,6.63
2019-03-03T20:52:51.735Z,6.60
2019-03-03T20:55:31.234Z,6.51
2019-03-03T20:57:59.961Z,6.24
2019-03-03T21:00:29.884Z,6.56
2019-03-03T21:02:58.757Z,6.42
2019-03-03T21:05:27.781Z,6.32
2019-03-03T21:07:56.472Z,6.31
2019-03-03T21:10:26.103Z,6.27
2019-03-03T21:12:54.674Z,6.29
2019-03-03T21:15:23.360Z,6.15
2019-03-03T21:17:52.000Z,6.13
2019-03-03T21:20:24.655Z,5.94
2019-03-03T21:22:53.304Z,5.80
2019-03-03T21:25:24.295Z,5.86
2019-03-03T21:27:52.934Z,5.95
2019-03-03T21:30:26.255Z,5.89
2019-03-03T21:32:54.898Z,5.76
2019-03-03T21:35:23.977Z,5.71
2019-03-03T21:37:52.719Z,5.66
2019-03-03T21:40:22.362Z,5.40
2019-03-03T21:42:51.000Z,5.39
2019-03-03T21:45:32.097Z,5.32
2019-03-03T21:48:00.485Z,5.37
2019-03-03T21:50:30.164Z,5.35
2019-03-03T21:52:58.875Z,5.33
2019-03-03T21:55:27.469Z,5.26
2019-03-03T21:57:58.823Z,5.12
2019-03-03T22:00:43.295Z,5.17
2019-03-03T22:03:11.974Z,5.18
2019-03-03T22:05:40.656Z,5.09
2019-03-03T22:08:09.291Z,5.09
2019-03-03T22:10:37.855Z,5.00
2019-03-03T22:13:12.891Z,4.98
2019-03-03T22:15:41.520Z,4.76
2019-03-03T22:18:10.178Z,4.71
2019-03-03T22:20:38.842Z,4.79
2019-03-03T22:23:07.466Z,4.70
2019-03-03T22:25:36.168Z,4.67
2019-03-03T22:28:04.808Z,4.72
2019-03-03T22:30:33.359Z,4.57
2019-03-03T22:33:02.041Z,4.59
2019-03-03T22:35:30.604Z,4.58
2019-03-03T22:37:59.235Z,4.44
2019-03-03T22:40:27.913Z,4.40
2019-03-03T22:42:56.588Z,4.31
2019-03-03T22:45:28.539Z,4.05
2019-03-03T22:47:57.227Z,3.90
2019-03-03T22:50:25.861Z,3.87
2019-03-03T22:52:54.431Z,3.73
2019-03-03T22:55:23.107Z,3.80
2019-03-03T22:57:51.662Z,3.78
2019-03-03T23:00:34.341Z,3.58
2019-03-03T23:03:02.907Z,3.80
2019-03-03T23:05:53.890Z,3.92
2019-03-03T23:08:40.637Z,3.93
2019-03-03T23:11:20.471Z,3.87
2019-03-03T23:13:54.845Z,3.80
2019-03-03T23:16:39.281Z,3.76
2019-03-03T23:19:13.374Z,3.58
2019-03-03T23:22:08.206Z,3.85
2019-03-03T23:24:42.660Z,3.81
2019-03-03T23:27:11.219Z,3.74
2019-03-03T23:29:39.834Z,3.66
2019-03-03T23:32:08.478Z,3.45
2019-03-03T23:34:37.037Z,3.42
2019-03-03T23:37:05.723Z,3.40
2019-03-03T23:39:34.284Z,3.33
2019-03-03T23:42:02.947Z,3.42
2019-03-03T23:44:31.407Z,3.45
2019-03-03T23:46:59.978Z,3.42
2019-03-03T23:49:31.556Z,3.60
2019-03-03T23:52:00.232Z,3.53
2019-03-03T23:54:28.715Z,3.49
2019-03-03T23:56:57.207Z,3.46
2019-03-03T23:59:25.775Z,3.44
